Time;durP1;ratioP1;P1;durP2;ratioP2;P2;SDS_P1;SDS_P2;PMS_P1;PMS_P2;Temp;Humidity;BMP_temperature;BMP_pressure;BME280_temperature;BME280_humidity;BME280_pressure;Samples;Min_cycle;Max_cycle;Signal;HPM_P1;HPM_P2
2022/06/01 00:00:57;;;;;;;8.17;7.33;;;13.10;99.90;;;;;;5069718;28;20904;-86
2022/06/01 00:03:24;;;;;;;8.82;8.02;;;13.10;99.90;;;;;;5069386;28;20994;-87
2022/06/01 00:05:53;;;;;;;8.52;7.53;;;13.10;99.90;;;;;;5069725;28;20381;-88
2022/06/01 00:08:22;;;;;;;8.40;7.53;;;13.10;99.90;;;;;;5070134;28;20398;-89
2022/06/01 00:10:50;;;;;;;9.23;8.33;;;13.00;99.90;;;;;;5052197;28;20400;-91
2022/06/01 00:13:16;;;;;;;8.40;7.70;;;13.10;99.90;;;;;;5068851;28;20374;-90
2022/06/01 00:15:42;;;;;;;8.15;7.45;;;13.10;99.90;;;;;;5070418;28;20386;-86
2022/06/01 00:18:08;;;;;;;8.13;7.23;;;13.10;99.90;;;;;;5052859;28;20380;-86
2022/06/01 00:20:35;;;;;;;7.95;7.15;;;13.20;99.90;;;;;;5068114;28;20729;-87
2022/06/01 00:23:01;;;;;;;7.80;7.10;;;13.20;99.90;;;;;;5070328;28;20884;-86
2022/06/01 00:25:26;;;;;;;8.53;7.73;;;13.20;99.90;;;;;;5067767;28;20404;-89
2022/06/01 00:27:52;;;;;;;8.10;7.40;;;13.20;99.90;;;;;;5065529;28;20516;-86
2022/06/01 00:30:19;;;;;;;8.05;7.25;;;13.10;99.90;;;;;;5085188;28;20775;-87
2022/06/01 00:32:45;;;;;;;8.20;7.40;;;13.10;99.90;;;;;;5051837;28;20479;-86
2022/06/01 00:35:13;;;;;;;8.38;7.57;;;13.00;99.90;;;;;;5085892;28;20427;-87
2022/06/01 00:37:38;;;;;;;8.70;7.93;;;12.90;99.90;;;;;;5051179;28;20466;-87
2022/06/01 00:40:06;;;;;;;8.20;7.40;;;13.00;99.90;;;;;;5052581;28;20475;-90
2022/06/01 00:42:34;;;;;;;8.10;7.43;;;13.00;99.90;;;;;;5050623;28;20410;-85
2022/06/01 00:45:00;;;;;;;8.70;7.90;;;12.90;99.90;;;;;;5052612;28;20380;-87
2022/06/01 00:47:27;;;;;;;8.80;8.00;;;12.90;99.90;;;;;;5051549;28;20852;-90
2022/06/01 00:50:07;;;;;;;8.88;8.18;;;12.90;99.90;;;;;;5050118;28;20380;-87
2022/06/01 00:52:36;;;;;;;9.68;8.48;;;12.90;99.90;;;;;;5065101;28;20587;-89
2022/06/01 00:55:18;;;;;;;9.02;8.23;;;12.90;99.90;;;;;;5069202;28;20378;-87
2022/06/01 00:57:48;;;;;;;9.60;8.68;;;12.90;99.90;;;;;;5070765;28;20382;-89
2022/06/01 01:00:20;;;;;;;10.15;9.25;;;13.00;99.90;;;;;;5070555;28;20710;-90
2022/06/01 01:02:47;;;;;;;10.13;9.07;;;13.00;99.90;;;;;;5070083;28;20547;-90
2022/06/01 01:05:15;;;;;;;11.23;10.03;;;13.00;99.90;;;;;;5069659;28;20375;-86
2022/06/01 01:07:42;;;;;;;11.93;10.68;;;13.00;99.90;;;;;;5070976;28;20520;-86
2022/06/01 01:10:10;;;;;;;11.18;10.10;;;13.10;99.90;;;;;;5070851;28;20379;-86
2022/06/01 01:15:20;;;;;;;11.75;10.70;;;13.10;99.90;;;;;;5072688;28;20428;-88
2022/06/01 01:17:49;;;;;;;11.27;10.25;;;13.10;99.90;;;;;;5070069;28;20374;-91
2022/06/01 01:20:15;;;;;;;11.45;10.40;;;13.10;99.90;;;;;;5071504;28;20374;-90
2022/06/01 01:23:00;;;;;;;11.85;10.73;;;13.20;99.90;;;;;;5070887;28;20398;-87
2022/06/01 01:25:29;;;;;;;10.95;9.95;;;13.20;99.90;;;;;;5066382;28;20468;-88
2022/06/01 01:27:58;;;;;;;12.20;11.10;;;13.10;99.90;;;;;;5070132;28;20382;-88
2022/06/01 01:30:37;;;;;;;11.57;10.52;;;13.10;99.90;;;;;;5070603;28;20385;-89
2022/06/01 01:33:15;;;;;;;10.70;9.70;;;13.10;99.90;;;;;;5069703;28;20880;-90
2022/06/01 01:35:44;;;;;;;11.05;10.07;;;13.10;99.90;;;;;;5069931;28;20390;-88
2022/06/01 01:38:31;;;;;;;11.70;10.40;;;13.10;99.90;;;;;;5070012;28;20421;-86
2022/06/01 01:41:07;;;;;;;11.30;10.30;;;13.10;99.90;;;;;;5070852;28;20452;-89
2022/06/01 01:43:37;;;;;;;10.27;9.38;;;13.10;99.90;;;;;;5070167;28;20406;-88
2022/06/01 01:46:03;;;;;;;10.40;9.50;;;13.10;99.90;;;;;;5070792;28;20374;-87
2022/06/01 01:48:30;;;;;;;11.00;10.07;;;13.10;99.90;;;;;;5070181;28;20389;-88
2022/06/01 01:50:56;;;;;;;10.40;9.50;;;13.10;99.90;;;;;;5069671;28;20421;-90
2022/06/01 01:53:22;;;;;;;10.15;9.25;;;13.10;99.90;;;;;;5069716;28;20374;-88
2022/06/01 01:55:47;;;;;;;11.02;9.93;;;13.10;99.90;;;;;;5067812;28;20399;-88
2022/06/01 01:58:19;;;;;;;11.13;10.13;;;13.00;99.90;;;;;;5054154;28;20605;-86
2022/06/01 02:00:52;;;;;;;11.95;10.70;;;13.00;99.90;;;;;;5062440;28;20379;-89
2022/06/01 02:03:27;;;;;;;11.00;10.10;;;13.00;99.90;;;;;;5070845;28;20491;-86
2022/06/01 02:06:07;;;;;;;12.00;10.80;;;13.00;99.90;;;;;;5072693;28;20382;-86
2022/06/01 02:09:18;;;;;;;11.50;10.40;;;13.00;99.90;;;;;;5074057;28;20379;-86
2022/06/01 02:14:46;;;;;;;10.75;9.85;;;13.00;99.90;;;;;;5073235;28;20370;-85
2022/06/01 02:17:21;;;;;;;11.05;10.10;;;13.00;99.90;;;;;;5071586;28;20484;-85
2022/06/01 02:20:03;;;;;;;11.30;10.20;;;13.00;99.90;;;;;;5071729;28;20417;-87
2022/06/01 02:22:29;;;;;;;11.23;10.33;;;13.10;99.90;;;;;;5069396;28;20433;-86
2022/06/01 02:24:55;;;;;;;10.77;9.83;;;13.00;99.90;;;;;;5067909;28;20406;-88
2022/06/01 02:27:22;;;;;;;11.37;10.30;;;13.10;99.90;;;;;;5051263;28;20491;-85
2022/06/01 02:29:54;;;;;;;10.80;9.80;;;13.00;99.90;;;;;;5050407;28;20375;-89
2022/06/01 02:32:22;;;;;;;10.85;9.88;;;13.00;99.90;;;;;;5049618;28;20380;-87
2022/06/01 02:34:49;;;;;;;11.27;10.27;;;12.90;99.90;;;;;;5049394;28;20459;-86
2022/06/01 02:37:17;;;;;;;11.80;10.70;;;13.00;99.90;;;;;;5048460;28;20396;-87
2022/06/01 02:39:52;;;;;;;12.02;10.90;;;12.90;99.90;;;;;;5048536;28;20403;-85
2022/06/01 02:42:30;;;;;;;11.70;10.65;;;12.80;99.90;;;;;;5081833;28;20434;-86
2022/06/01 02:45:04;;;;;;;11.95;10.93;;;12.90;99.90;;;;;;5062827;28;20387;-86
2022/06/01 02:47:32;;;;;;;10.05;9.25;;;12.80;99.90;;;;;;5068947;28;20390;-87
2022/06/01 02:49:59;;;;;;;11.57;10.38;;;12.90;99.90;;;;;;5067790;28;20390;-88
2022/06/01 02:52:25;;;;;;;10.83;9.80;;;12.80;99.90;;;;;;5069329;28;20487;-88
2022/06/01 02:54:52;;;;;;;10.85;9.80;;;12.90;99.90;;;;;;5069870;28;20382;-87
2022/06/01 02:57:18;;;;;;;10.73;9.82;;;12.80;99.90;;;;;;5063955;28;20404;-85
2022/06/01 02:59:44;;;;;;;10.25;9.35;;;12.80;99.90;;;;;;5081392;28;20380;-85
2022/06/01 03:02:10;;;;;;;10.60;9.73;;;12.80;99.90;;;;;;5049307;28;20387;-85
2022/06/01 03:04:37;;;;;;;9.93;8.97;;;12.80;99.90;;;;;;5081398;28;20400;-85
2022/06/01 03:07:03;;;;;;;10.10;9.20;;;12.80;99.90;;;;;;5048741;28;20386;-88
2022/06/01 03:09:29;;;;;;;10.30;9.40;;;12.80;99.90;;;;;;5049753;28;20384;-86
2022/06/01 03:11:55;;;;;;;10.80;9.80;;;12.70;99.90;;;;;;5049381;28;20372;-86
2022/06/01 03:14:21;;;;;;;10.88;9.90;;;12.70;99.90;;;;;;5061134;28;20428;-88
2022/06/01 03:16:47;;;;;;;10.05;9.25;;;12.70;99.90;;;;;;5067532;28;20410;-86
2022/06/01 03:19:13;;;;;;;9.55;8.65;;;12.70;99.90;;;;;;5047465;28;20380;-85
2022/06/01 03:21:40;;;;;;;11.10;10.10;;;12.70;99.90;;;;;;5066964;28;20888;-89
2022/06/01 03:24:06;;;;;;;9.63;8.82;;;12.70;99.90;;;;;;5047883;28;20426;-86
2022/06/01 03:26:31;;;;;;;9.40;8.60;;;12.80;99.90;;;;;;5061788;28;20390;-85
2022/06/01 03:28:57;;;;;;;10.67;9.67;;;12.80;99.90;;;;;;5067498;28;20378;-85
2022/06/01 03:31:23;;;;;;;10.18;9.25;;;12.80;99.90;;;;;;5067020;28;20906;-86
2022/06/01 03:33:48;;;;;;;10.80;9.80;;;12.70;99.90;;;;;;5067008;28;20390;-89
2022/06/01 03:36:15;;;;;;;10.20;9.30;;;12.70;99.90;;;;;;5067231;28;20386;-85
2022/06/01 03:38:41;;;;;;;9.30;8.50;;;12.60;99.90;;;;;;5067041;28;20468;-87
2022/06/01 03:41:07;;;;;;;10.10;9.20;;;12.60;99.90;;;;;;5067267;28;20397;-86
2022/06/01 03:45:55;;;;;;;10.03;9.03;;;12.60;99.90;;;;;;5067072;28;20496;-87
2022/06/01 03:46:18;;;;;;;10.40;9.40;;;12.50;99.90;;;;;;5068093;28;20378;-87
2022/06/01 03:48:43;;;;;;;10.90;9.65;;;12.50;99.90;;;;;;5067296;28;20451;-87
2022/06/01 03:51:09;;;;;;;11.23;10.23;;;12.40;99.90;;;;;;5047269;28;20430;-88
2022/06/01 03:53:35;;;;;;;11.60;10.60;;;12.30;99.90;;;;;;5048003;28;20376;-86
2022/06/01 03:56:02;;;;;;;11.00;10.10;;;12.30;99.90;;;;;;5057563;28;20489;-87
2022/06/01 03:58:28;;;;;;;11.43;10.43;;;12.30;99.90;;;;;;5067189;28;20382;-89
2022/06/01 04:00:54;;;;;;;10.63;9.63;;;12.20;99.90;;;;;;5068319;28;20436;-86
2022/06/01 04:03:20;;;;;;;10.30;9.50;;;12.20;99.90;;;;;;5047598;28;20415;-85
2022/06/01 04:05:46;;;;;;;10.45;9.57;;;12.10;99.90;;;;;;5066130;28;20431;-86
2022/06/01 04:08:13;;;;;;;11.27;10.18;;;12.10;99.90;;;;;;5067247;28;20379;-87
2022/06/01 04:10:43;;;;;;;9.33;8.50;;;12.10;99.90;;;;;;5066852;28;20729;-87
2022/06/01 04:13:09;;;;;;;10.10;9.10;;;12.10;99.90;;;;;;5067160;28;20398;-85
2022/06/01 04:15:35;;;;;;;10.55;9.65;;;12.00;99.90;;;;;;5067494;28;20907;-87
2022/06/01 04:18:00;;;;;;;10.43;9.52;;;12.00;99.90;;;;;;5067987;28;20382;-89
2022/06/01 04:20:26;;;;;;;11.00;9.90;;;11.90;99.90;;;;;;5052169;28;20376;-87
2022/06/01 04:22:54;;;;;;;10.10;9.20;;;12.00;99.90;;;;;;5051897;28;20489;-86
2022/06/01 04:25:20;;;;;;;10.18;9.20;;;12.00;99.90;;;;;;5050416;28;20387;-85
2022/06/01 04:27:46;;;;;;;9.60;8.80;;;12.00;99.90;;;;;;5068670;28;20401;-87
2022/06/01 04:30:14;;;;;;;9.27;8.38;;;12.20;99.90;;;;;;5070574;28;20496;-88
2022/06/01 04:32:40;;;;;;;8.60;7.90;;;12.30;99.90;;;;;;5070327;28;20382;-85
2022/06/01 04:35:07;;;;;;;7.88;7.18;;;12.60;99.90;;;;;;5071320;28;20382;-85
2022/06/01 04:37:33;;;;;;;7.32;6.63;;;12.70;99.90;;;;;;5069942;28;20416;-86
2022/06/01 04:39:59;;;;;;;7.95;7.15;;;12.90;99.90;;;;;;5069846;28;20389;-86
2022/06/01 04:42:24;;;;;;;9.10;7.00;;;13.10;99.90;;;;;;5070288;28;20389;-88
2022/06/01 04:44:50;;;;;;;6.20;5.70;;;13.30;99.90;;;;;;5071222;28;20514;-86
2022/06/01 04:47:18;;;;;;;6.78;5.43;;;13.70;99.90;;;;;;5070421;28;20378;-85
2022/06/01 04:49:45;;;;;;;6.25;5.75;;;14.10;99.90;;;;;;5071118;28;20386;-85
2022/06/01 04:52:11;;;;;;;6.38;5.78;;;14.40;99.90;;;;;;5071118;28;20459;-87
2022/06/01 04:54:37;;;;;;;8.40;6.43;;;14.60;99.90;;;;;;5070502;28;20375;-87
2022/06/01 04:57:02;;;;;;;8.53;6.07;;;14.80;99.90;;;;;;5066780;28;20435;-86
2022/06/01 04:59:28;;;;;;;6.57;5.90;;;14.90;99.90;;;;;;5054232;28;20463;-86
2022/06/01 05:01:54;;;;;;;6.40;5.78;;;15.00;99.90;;;;;;5050953;28;20380;-85
2022/06/01 05:04:19;;;;;;;6.67;5.97;;;15.20;99.90;;;;;;5082890;28;20428;-87
2022/06/01 05:06:45;;;;;;;7.70;6.37;;;15.40;99.90;;;;;;5051719;28;20383;-86
2022/06/01 05:09:10;;;;;;;7.50;6.53;;;15.60;99.90;;;;;;5051167;28;20462;-86
2022/06/01 05:11:36;;;;;;;8.82;6.75;;;15.60;99.90;;;;;;5051818;28;20928;-86
2022/06/01 05:14:02;;;;;;;7.93;6.90;;;15.60;99.90;;;;;;5051564;28;20441;-85
2022/06/01 05:16:27;;;;;;;8.07;6.40;;;15.70;99.90;;;;;;5050755;28;20874;-86
2022/06/01 05:18:53;;;;;;;6.50;5.83;;;15.90;99.90;;;;;;5051321;28;20383;-85
2022/06/01 05:21:19;;;;;;;7.53;5.82;;;16.20;99.90;;;;;;5050888;28;20387;-84
2022/06/01 05:23:44;;;;;;;6.73;5.70;;;16.60;99.90;;;;;;5051007;28;20408;-85
2022/06/01 05:26:10;;;;;;;6.30;5.35;;;16.90;99.90;;;;;;5061768;28;20618;-85
2022/06/01 05:28:35;;;;;;;7.10;6.37;;;16.90;99.90;;;;;;5070942;28;20744;-83
2022/06/01 05:31:05;;;;;;;7.10;6.40;;;17.00;99.90;;;;;;5071107;28;20376;-85
2022/06/01 05:33:31;;;;;;;6.40;5.80;;;16.90;99.90;;;;;;5069834;28;20386;-84
2022/06/01 05:35:57;;;;;;;7.22;6.10;;;16.90;99.90;;;;;;5069431;28;20382;-84
2022/06/01 05:38:23;;;;;;;7.77;6.60;;;16.80;99.90;;;;;;5071324;28;20465;-83
2022/06/01 05:40:48;;;;;;;7.85;6.90;;;16.80;99.90;;;;;;5069240;28;20413;-85
2022/06/01 05:43:16;;;;;;;7.80;6.97;;;16.70;99.90;;;;;;5049656;28;20427;-85
2022/06/01 05:45:42;;;;;;;8.70;6.93;;;16.60;99.90;;;;;;5068283;28;20753;-85
2022/06/01 05:48:13;;;;;;;8.70;7.00;;;16.60;99.90;;;;;;5051968;28;20399;-83
2022/06/01 05:50:39;;;;;;;6.97;6.28;;;16.70;99.90;;;;;;5051461;28;20498;-85
2022/06/01 05:53:05;;;;;;;6.97;6.28;;;16.70;99.90;;;;;;5053039;28;20380;-83
2022/06/01 05:55:32;;;;;;;7.10;6.35;;;16.70;99.90;;;;;;5068092;28;20849;-84
2022/06/01 05:57:57;;;;;;;7.63;5.65;;;16.80;99.90;;;;;;5070271;28;20447;-83
2022/06/01 06:00:23;;;;;;;5.88;5.28;;;17.00;99.90;;;;;;5071462;28;20374;-82
2022/06/01 06:02:49;;;;;;;6.00;5.40;;;17.00;99.90;;;;;;5072313;28;20374;-87
2022/06/01 06:07:59;;;;;;;6.25;5.50;;;16.90;99.90;;;;;;5064984;28;20496;-85
2022/06/01 06:10:26;;;;;;;6.03;5.43;;;16.70;99.90;;;;;;5069060;28;20898;-84
2022/06/01 06:12:53;;;;;;;7.18;5.75;;;16.80;99.90;;;;;;5056134;28;20796;-86
2022/06/01 06:15:19;;;;;;;6.35;5.57;;;16.80;99.90;;;;;;5048464;28;20400;-83
2022/06/01 06:17:45;;;;;;;5.35;4.85;;;16.90;99.90;;;;;;5050008;28;20375;-84
2022/06/01 06:20:11;;;;;;;5.60;5.10;;;16.90;99.90;;;;;;5049365;28;20372;-83
2022/06/01 06:22:36;;;;;;;5.30;4.80;;;17.10;99.90;;;;;;5055487;28;20380;-84
2022/06/01 06:25:03;;;;;;;6.17;5.50;;;17.20;99.90;;;;;;5051042;28;20372;-83
2022/06/01 06:27:28;;;;;;;4.93;4.53;;;17.30;99.90;;;;;;5048470;28;20384;-83
2022/06/01 06:29:55;;;;;;;5.33;4.83;;;17.40;99.90;;;;;;5053756;28;20874;-84
2022/06/01 06:32:21;;;;;;;6.80;5.45;;;17.60;99.90;;;;;;5055396;28;20376;-83
2022/06/01 06:34:47;;;;;;;5.97;5.07;;;17.80;99.90;;;;;;5048916;28;20446;-84
2022/06/01 06:37:12;;;;;;;5.70;5.13;;;17.90;99.90;;;;;;5060944;28;20911;-84
2022/06/01 06:39:38;;;;;;;5.67;5.10;;;17.80;99.90;;;;;;5088677;28;20396;-85
2022/06/01 06:42:04;;;;;;;5.70;5.20;;;17.70;99.90;;;;;;5063922;28;20393;-83
2022/06/01 06:44:29;;;;;;;6.13;5.53;;;17.50;99.90;;;;;;5054596;28;20751;-82
2022/06/01 06:46:55;;;;;;;6.87;5.30;;;17.40;99.90;;;;;;5052334;28;20392;-83
2022/06/01 06:49:21;;;;;;;7.03;5.55;;;17.80;99.90;;;;;;5051466;28;20388;-83
2022/06/01 06:51:46;;;;;;;7.20;4.80;;;18.20;99.90;;;;;;5054862;28;20391;-84
2022/06/01 06:54:12;;;;;;;5.97;5.43;;;18.40;99.90;;;;;;5084789;28;20467;-84
2022/06/01 06:56:38;;;;;;;5.97;5.00;;;18.40;99.90;;;;;;5063091;28;20764;-84
2022/06/01 06:59:04;;;;;;;5.70;5.00;;;18.50;99.90;;;;;;5051779;28;20383;-83
2022/06/01 07:01:30;;;;;;;5.50;5.00;;;18.80;99.90;;;;;;5061004;28;20434;-82
2022/06/01 07:03:56;;;;;;;5.80;5.20;;;18.80;99.90;;;;;;5065560;28;20394;-82
2022/06/01 07:06:23;;;;;;;5.40;4.90;;;19.00;99.90;;;;;;5101211;28;20773;-83
2022/06/01 07:08:52;;;;;;;5.93;5.18;;;19.00;99.90;;;;;;5070577;28;20370;-83
2022/06/01 07:11:20;;;;;;;6.95;5.53;;;18.80;99.90;;;;;;5065876;28;20421;-85
2022/06/01 07:13:47;;;;;;;6.50;5.80;;;18.50;99.90;;;;;;5073101;28;20382;-85
2022/06/01 07:16:16;;;;;;;7.28;5.75;;;18.10;99.90;;;;;;5053047;28;20396;-83
2022/06/01 07:18:45;;;;;;;7.00;6.00;;;17.70;99.90;;;;;;5051551;28;20383;-82
2022/06/01 07:21:11;;;;;;;6.40;5.80;;;17.40;99.90;;;;;;5050965;28;20419;-85
2022/06/01 07:23:38;;;;;;;6.97;6.35;;;17.20;99.90;;;;;;5052940;28;20481;-82
2022/06/01 07:26:06;;;;;;;6.72;6.13;;;17.20;99.90;;;;;;5066300;28;20402;-82
2022/06/01 07:28:32;;;;;;;6.35;5.60;;;17.10;99.90;;;;;;5054385;28;20388;-84
2022/06/01 07:30:58;;;;;;;7.10;5.75;;;17.20;99.90;;;;;;5061488;28;20441;-85
2022/06/01 07:33:28;;;;;;;6.87;5.70;;;17.30;99.90;;;;;;5051752;28;20376;-82
2022/06/01 07:35:58;;;;;;;6.88;5.90;;;17.40;99.90;;;;;;5053152;28;20411;-84
2022/06/01 07:43:56;;;;;;;5.97;5.38;;;18.60;99.90;;;;;;5049224;28;20460;-84
2022/06/01 07:46:21;;;;;;;5.37;4.87;;;18.90;99.90;;;;;;5081320;28;20403;-84
2022/06/01 07:48:49;;;;;;;6.07;5.07;;;19.20;99.90;;;;;;5053022;28;20391;-83
2022/06/01 07:51:15;;;;;;;6.28;5.10;;;19.70;99.90;;;;;;5049716;28;20387;-83
2022/06/01 07:53:41;;;;;;;6.28;4.97;;;20.00;99.90;;;;;;5086438;28;20384;-89
2022/06/01 07:56:06;;;;;;;5.73;5.03;;;20.20;99.90;;;;;;5058771;28;20971;-83
2022/06/01 07:58:32;;;;;;;5.10;4.68;;;19.90;99.90;;;;;;5060317;28;20438;-88
2022/06/01 08:00:57;;;;;;;4.93;4.50;;;20.20;99.90;;;;;;5072468;28;20890;-87
2022/06/01 08:03:23;;;;;;;6.40;4.63;;;21.20;99.90;;;;;;5062091;28;20426;-87
2022/06/01 08:05:49;;;;;;;5.75;4.78;;;21.20;99.90;;;;;;5054482;28;20922;-83
2022/06/01 08:08:14;;;;;;;5.07;4.63;;;21.00;99.90;;;;;;5052693;28;20382;-84
2022/06/01 08:10:40;;;;;;;5.63;4.32;;;20.80;99.90;;;;;;5054035;28;20376;-86
2022/06/01 08:13:10;;;;;;;4.65;4.25;;;20.60;99.90;;;;;;5053887;28;20475;-84
2022/06/01 08:15:42;;;;;;;5.97;4.33;;;20.60;99.90;;;;;;5066263;28;20390;-84
2022/06/01 08:18:08;;;;;;;5.47;4.13;;;20.50;99.90;;;;;;5071879;28;20465;-84
2022/06/01 08:20:36;;;;;;;4.15;3.65;;;20.40;99.90;;;;;;5057647;28;20904;-86
2022/06/01 08:23:03;;;;;;;5.25;3.83;;;20.40;99.90;;;;;;5051917;28;20404;-84
2022/06/01 08:25:30;;;;;;;6.47;4.20;;;20.30;99.90;;;;;;5055139;28;20453;-85
2022/06/01 08:27:56;;;;;;;6.17;4.37;;;20.30;99.90;;;;;;5072975;28;20385;-83
2022/06/01 08:30:23;;;;;;;5.13;4.45;;;20.20;99.90;;;;;;5073467;28;21203;-84
2022/06/01 08:32:51;;;;;;;5.20;4.20;;;20.10;99.90;;;;;;5073248;28;20424;-85
2022/06/01 08:35:19;;;;;;;5.20;4.15;;;20.10;99.90;;;;;;5072536;28;20378;-84
2022/06/01 08:37:46;;;;;;;5.40;4.47;;;19.90;99.90;;;;;;5073705;28;20745;-84
2022/06/01 08:40:24;;;;;;;7.07;4.35;;;19.80;99.90;;;;;;5072265;28;20459;-84
2022/06/01 08:42:56;;;;;;;6.25;4.65;;;19.90;99.90;;;;;;5074132;28;20441;-82
2022/06/01 08:45:22;;;;;;;5.38;4.65;;;20.20;99.90;;;;;;5054931;28;20477;-85
2022/06/01 08:47:48;;;;;;;5.35;4.43;;;20.60;99.90;;;;;;5052141;28;20388;-82
2022/06/01 08:50:38;;;;;;;7.70;4.43;;;20.90;99.90;;;;;;5062807;28;20444;-83
2022/06/01 08:53:07;;;;;;;5.97;4.60;;;21.10;99.90;;;;;;5059650;28;20388;-82
2022/06/01 08:55:52;;;;;;;6.60;4.07;;;20.90;99.90;;;;;;5064713;28;20412;-84
2022/06/01 08:58:24;;;;;;;4.93;4.43;;;20.70;99.90;;;;;;5070006;28;20396;-82
2022/06/01 09:01:28;;;;;;;6.35;4.50;;;20.70;99.90;;;;;;5073560;28;20736;-83
2022/06/01 09:04:34;;;;;;;5.00;4.18;;;20.70;99.90;;;;;;5068036;28;20766;-87
2022/06/01 09:07:22;;;;;;;5.97;4.00;;;20.80;99.90;;;;;;5056515;28;20387;-84
2022/06/01 09:10:18;;;;;;;5.30;3.50;;;21.20;99.90;;;;;;5070143;28;20454;-83
2022/06/01 09:12:45;;;;;;;4.50;3.72;;;21.50;99.90;;;;;;5026369;28;20407;-83
2022/06/01 09:15:23;;;;;;;4.47;4.00;;;21.60;99.90;;;;;;5060912;28;20751;-83
2022/06/01 09:17:48;;;;;;;5.10;4.20;;;21.50;99.80;;;;;;5064301;28;20494;-85
2022/06/01 09:23:02;;;;;;;5.25;4.00;;;21.30;99.30;;;;;;5067586;28;20501;-83
2022/06/01 09:25:34;;;;;;;4.55;4.10;;;20.90;99.50;;;;;;5077175;28;20377;-83
2022/06/01 09:28:04;;;;;;;4.55;3.92;;;20.70;99.50;;;;;;5072581;28;20421;-83
2022/06/01 09:30:36;;;;;;;4.53;3.50;;;20.70;99.70;;;;;;5074086;28;21058;-83
2022/06/01 09:33:25;;;;;;;7.97;3.60;;;20.60;99.90;;;;;;5073440;28;20394;-83
2022/06/01 09:36:06;;;;;;;4.68;3.28;;;20.50;99.90;;;;;;5073312;28;20394;-84
2022/06/01 09:38:49;;;;;;;5.68;3.72;;;20.40;99.90;;;;;;5072318;28;20379;-85
2022/06/01 09:41:24;;;;;;;3.70;3.40;;;20.20;99.90;;;;;;5071367;28;20397;-84
2022/06/01 09:43:55;;;;;;;5.28;3.65;;;19.80;99.90;;;;;;5067989;28;20499;-85
2022/06/01 09:46:36;;;;;;;3.87;3.43;;;19.50;99.90;;;;;;5069053;28;20398;-83
2022/06/01 09:49:18;;;;;;;3.13;2.70;;;19.70;99.90;;;;;;5070977;28;20378;-84
2022/06/01 09:51:46;;;;;;;4.90;2.97;;;20.30;99.90;;;;;;5073828;28;20443;-85
2022/06/01 09:54:27;;;;;;;4.87;2.80;;;20.90;99.90;;;;;;5071680;28;20382;-84
2022/06/01 09:56:53;;;;;;;4.95;3.08;;;;;;;;;;5071711;28;20374;-85
2022/06/01 10:08:32;;;;;;;3.70;2.80;;;22.80;94.70;;;;;;5074364;28;20389;-84
2022/06/01 10:11:00;;;;;;;4.22;3.40;;;22.10;95.20;;;;;;5074613;28;20386;-84
2022/06/01 10:13:37;;;;;;;4.65;2.78;;;21.30;96.00;;;;;;5074430;28;20385;-83
2022/06/01 10:16:27;;;;;;;4.63;3.10;;;21.00;97.70;;;;;;5069667;28;20395;-83
2022/06/01 10:18:56;;;;;;;3.65;2.83;;;20.90;96.50;;;;;;5071426;28;20405;-83
2022/06/01 10:21:27;;;;;;;4.03;2.60;;;20.90;97.50;;;;;;5075926;28;20409;-83
2022/06/01 10:24:07;;;;;;;2.97;2.60;;;20.80;99.00;;;;;;5074041;28;20405;-83
2022/06/01 10:26:40;;;;;;;5.15;3.17;;;20.80;95.60;;;;;;5070400;28;20378;-84
2022/06/01 10:29:13;;;;;;;3.00;2.70;;;21.00;96.10;;;;;;5070718;28;20401;-82
2022/06/01 10:31:39;;;;;;;3.83;3.00;;;21.10;94.90;;;;;;5069060;28;20379;-84
2022/06/01 10:34:17;;;;;;;4.60;3.07;;;21.40;95.30;;;;;;5069029;28;20409;-85
2022/06/01 10:37:23;;;;;;;4.05;2.95;;;21.50;96.90;;;;;;5068225;28;20393;-86
2022/06/01 10:40:03;;;;;;;3.67;2.55;;;21.90;94.20;;;;;;5040833;28;20395;-84
2022/06/01 10:45:49;;;;;;;4.03;2.70;;;22.30;94.00;;;;;;5068454;28;20417;-84
2022/06/01 10:48:33;;;;;;;4.68;3.13;;;22.40;94.30;;;;;;5069013;28;20402;-87
2022/06/01 10:51:10;;;;;;;4.27;2.30;;;22.00;93.60;;;;;;5067759;28;20389;-86
2022/06/01 10:54:07;;;;;;;2.53;2.22;;;21.80;94.10;;;;;;5068250;28;20471;-88
2022/06/01 10:56:33;;;;;;;4.07;2.90;;;21.90;93.20;;;;;;5014407;28;20446;-85
2022/06/01 10:59:08;;;;;;;4.13;3.00;;;21.70;93.00;;;;;;5069941;28;20396;-84
2022/06/01 11:01:41;;;;;;;3.92;2.90;;;21.40;93.70;;;;;;5068124;28;20386;-84
2022/06/01 11:04:37;;;;;;;3.83;2.75;;;21.20;94.70;;;;;;5067436;28;20768;-84
2022/06/01 11:07:07;;;;;;;3.72;3.10;;;20.90;95.40;;;;;;5069338;28;20794;-86
2022/06/01 11:10:01;;;;;;;3.08;2.78;;;20.80;95.60;;;;;;5069387;28;20431;-87
2022/06/01 11:13:03;;;;;;;4.53;3.10;;;20.40;96.70;;;;;;5070832;28;20377;-86
2022/06/01 11:15:41;;;;;;;5.43;2.80;;;19.70;99.80;;;;;;5078877;28;20420;-87
2022/06/01 11:18:32;;;;;;;7.05;3.20;;;18.80;99.90;;;;;;5069136;28;20401;-86
2022/06/01 11:21:13;;;;;;;7.93;2.88;;;18.00;99.90;;;;;;5072294;28;20385;-87
2022/06/01 11:24:16;;;;;;;9.25;3.80;;;17.30;99.90;;;;;;5068576;28;20406;-86
2022/06/01 11:27:03;;;;;;;4.88;3.03;;;17.00;99.90;;;;;;5068771;28;20413;-83
2022/06/01 11:29:34;;;;;;;3.35;2.60;;;16.80;99.90;;;;;;5073039;28;20892;-86
2022/06/01 11:32:06;;;;;;;3.90;2.60;;;17.00;99.90;;;;;;5073974;28;20431;-85
2022/06/01 11:34:41;;;;;;;3.47;2.20;;;17.20;99.90;;;;;;5075232;28;20446;-84
2022/06/01 11:37:33;;;;;;;2.25;2.05;;;17.30;99.90;;;;;;5070875;28;20476;-86
2022/06/01 11:40:13;;;;;;;3.70;2.25;;;17.40;99.90;;;;;;5075862;28;20398;-87
2022/06/01 11:42:55;;;;;;;2.60;2.20;;;17.60;99.90;;;;;;5072793;28;20748;-88
2022/06/01 11:45:38;;;;;;;2.20;1.73;;;17.70;99.90;;;;;;5073104;28;20516;-84
2022/06/01 11:48:08;;;;;;;1.85;1.75;;;18.00;99.90;;;;;;5073150;28;20413;-86
2022/06/01 11:50:52;;;;;;;1.73;1.52;;;18.00;99.90;;;;;;5073488;28;20378;-85
2022/06/01 11:53:35;;;;;;;2.63;2.10;;;18.20;99.90;;;;;;5073665;28;20385;-85
2022/06/01 11:56:30;;;;;;;2.30;1.85;;;18.40;99.90;;;;;;5072260;28;20476;-85
2022/06/01 11:59:36;;;;;;;2.80;2.55;;;18.70;99.90;;;;;;5086484;28;20395;-86
2022/06/01 12:02:19;;;;;;;2.17;1.98;;;18.90;99.90;;;;;;5070328;28;20485;-84
2022/06/01 12:05:01;;;;;;;3.28;2.22;;;19.10;99.90;;;;;;5070171;28;20763;-83
2022/06/01 12:07:33;;;;;;;2.50;2.00;;;19.40;99.90;;;;;;5072122;28;20390;-83
2022/06/01 12:10:04;;;;;;;2.80;2.08;;;19.60;99.90;;;;;;5070871;28;20400;-83
2022/06/01 12:12:32;;;;;;;2.10;1.90;;;19.80;99.90;;;;;;5070479;28;20382;-84
2022/06/01 12:15:15;;;;;;;2.28;2.03;;;20.10;99.90;;;;;;5072110;28;20390;-85
2022/06/01 12:17:58;;;;;;;3.83;2.30;;;20.20;99.90;;;;;;5071243;28;20374;-83
2022/06/01 12:20:33;;;;;;;2.80;2.38;;;20.50;99.90;;;;;;5072679;28;20358;-84
2022/06/01 12:28:58;;;;;;;3.40;2.30;;;21.10;99.90;;;;;;5072531;28;20483;-85
2022/06/01 12:31:31;;;;;;;2.90;2.10;;;21.50;99.90;;;;;;5072565;28;20396;-85
2022/06/01 12:34:19;;;;;;;2.92;2.20;;;21.70;99.80;;;;;;5071456;28;20409;-85
2022/06/01 12:36:53;;;;;;;2.50;1.90;;;21.60;97.70;;;;;;5072576;28;20495;-83
2022/06/01 12:39:38;;;;;;;2.13;1.90;;;21.20;99.30;;;;;;5071076;28;20378;-86
2022/06/01 12:42:18;;;;;;;1.85;1.63;;;21.30;99.90;;;;;;5073101;28;20421;-82
2022/06/01 12:44:47;;;;;;;2.73;1.60;;;21.20;98.20;;;;;;5070489;28;20424;-84
2022/06/01 12:47:45;;;;;;;2.20;1.50;;;;;;;;;;5071400;28;20751;-84
2022/06/01 12:50:18;;;;;;;2.80;1.73;;;21.40;97.10;;;;;;5016959;28;20724;-86
2022/06/01 12:52:46;;;;;;;2.13;1.60;;;21.60;99.50;;;;;;5072352;28;20457;-85
2022/06/01 12:55:24;;;;;;;2.08;1.58;;;21.70;98.30;;;;;;5073780;28;20382;-84
2022/06/01 12:57:58;;;;;;;2.88;1.80;;;21.90;98.20;;;;;;5070388;28;20460;-89
2022/06/01 13:00:25;;;;;;;2.90;1.80;;;22.10;97.30;;;;;;5071827;28;20389;-87
2022/06/01 13:02:53;;;;;;;3.15;1.80;;;22.30;95.00;;;;;;5072829;28;20382;-87
2022/06/01 13:32:33;;;;;;;4.47;2.20;;;18.60;99.30;;;;;;5087919;28;20852;-88
2022/06/01 13:35:28;;;;;;;5.85;2.40;;;18.80;98.10;;;;;;5086487;28;20420;-87
2022/06/01 13:37:56;;;;;;;3.97;1.95;;;19.00;99.30;;;;;;5084983;28;20385;-88
2022/06/01 13:40:29;;;;;;;4.88;2.03;;;19.20;96.80;;;;;;5087165;28;20377;-85
2022/06/01 13:43:16;;;;;;;2.65;1.85;;;19.20;97.50;;;;;;5089650;28;20392;-88
2022/06/01 13:45:50;;;;;;;2.93;1.73;;;19.20;98.40;;;;;;5121656;27;20407;-83
2022/06/01 13:48:37;;;;;;;3.22;1.55;;;19.20;97.10;;;;;;5098928;28;20380;-85
2022/06/01 13:51:09;;;;;;;3.63;1.20;;;19.40;97.80;;;;;;5096961;28;20573;-85
2022/06/01 13:53:46;;;;;;;1.33;1.20;;;19.40;97.40;;;;;;5095390;28;20373;-85
2022/06/01 13:56:29;;;;;;;2.90;1.45;;;19.40;96.90;;;;;;5087240;28;20380;-87
2022/06/01 13:59:02;;;;;;;3.45;1.55;;;19.40;97.70;;;;;;5076174;28;20881;-87
2022/06/01 14:01:40;;;;;;;1.50;1.40;;;19.60;96.70;;;;;;5076433;28;20883;-85
2022/06/01 14:04:28;;;;;;;1.77;1.20;;;19.70;97.10;;;;;;5076597;28;20390;-84
2022/06/01 14:07:00;;;;;;;3.25;1.50;;;19.60;97.10;;;;;;5076183;28;20381;-86